sensor_id;sensor_type;location;lat;lon;timestamp;P1;durP1;ratioP1;P2;durP2;ratioP2
7029;SDS011;3556;53.500;10.176;2023-06-10T00:00:12;9.80;;;5.23;;
7029;SDS011;3556;53.500;10.176;2023-06-10T00:02:39;10.00;;;4.07;;
7029;SDS011;3556;53.500;10.176;2023-06-10T00:05:05;7.17;;;4.83;;
7029;SDS011;3556;53.500;10.176;2023-06-10T00:07:32;9.40;;;4.67;;
7029;SDS011;3556;53.500;10.176;2023-06-10T00:09:59;6.80;;;3.90;;
7029;SDS011;3556;53.500;10.176;2023-06-10T00:12:25;9.33;;;4.10;;
7029;SDS011;3556;53.500;10.176;2023-06-10T00:14:50;7.30;;;3.87;;
7029;SDS011;3556;53.500;10.176;2023-06-10T00:17:18;8.33;;;4.47;;
7029;SDS011;3556;53.500;10.176;2023-06-10T00:19:44;7.93;;;3.83;;
7029;SDS011;3556;53.500;10.176;2023-06-10T00:22:12;9.47;;;4.63;;
7029;SDS011;3556;53.500;10.176;2023-06-10T00:24:37;10.00;;;4.47;;
7029;SDS011;3556;53.500;10.176;2023-06-10T00:27:04;9.40;;;4.40;;
7029;SDS011;3556;53.500;10.176;2023-06-10T00:29:32;9.17;;;4.20;;
7029;SDS011;3556;53.500;10.176;2023-06-10T00:31:57;13.23;;;4.73;;
7029;SDS011;3556;53.500;10.176;2023-06-10T00:34:23;8.70;;;4.80;;
7029;SDS011;3556;53.500;10.176;2023-06-10T00:36:49;11.17;;;4.17;;
7029;SDS011;3556;53.500;10.176;2023-06-10T00:39:15;8.27;;;4.07;;
7029;SDS011;3556;53.500;10.176;2023-06-10T00:41:41;8.87;;;4.20;;
7029;SDS011;3556;53.500;10.176;2023-06-10T00:44:07;7.73;;;3.90;;
7029;SDS011;3556;53.500;10.176;2023-06-10T00:46:33;13.53;;;4.80;;
7029;SDS011;3556;53.500;10.176;2023-06-10T00:49:00;7.93;;;4.00;;
7029;SDS011;3556;53.500;10.176;2023-06-10T00:51:26;8.10;;;4.50;;
7029;SDS011;3556;53.500;10.176;2023-06-10T00:53:52;10.40;;;4.90;;
7029;SDS011;3556;53.500;10.176;2023-06-10T00:56:18;5.73;;;4.00;;
7029;SDS011;3556;53.500;10.176;2023-06-10T00:58:45;8.07;;;4.13;;
7029;SDS011;3556;53.500;10.176;2023-06-10T01:01:10;6.07;;;3.80;;
7029;SDS011;3556;53.500;10.176;2023-06-10T01:03:37;7.37;;;4.20;;
7029;SDS011;3556;53.500;10.176;2023-06-10T01:06:28;8.90;;;4.20;;
7029;SDS011;3556;53.500;10.176;2023-06-10T01:09:03;6.80;;;3.50;;
7029;SDS011;3556;53.500;10.176;2023-06-10T01:12:02;11.90;;;4.07;;
7029;SDS011;3556;53.500;10.176;2023-06-10T01:14:40;10.60;;;4.73;;
7029;SDS011;3556;53.500;10.176;2023-06-10T01:17:10;9.03;;;4.70;;
7029;SDS011;3556;53.500;10.176;2023-06-10T01:19:36;7.43;;;4.43;;
7029;SDS011;3556;53.500;10.176;2023-06-10T01:22:02;14.23;;;4.77;;
7029;SDS011;3556;53.500;10.176;2023-06-10T01:24:28;5.83;;;3.83;;
7029;SDS011;3556;53.500;10.176;2023-06-10T01:26:57;6.20;;;3.97;;
7029;SDS011;3556;53.500;10.176;2023-06-10T01:29:28;8.90;;;4.33;;
7029;SDS011;3556;53.500;10.176;2023-06-10T01:34:36;12.03;;;4.30;;
7029;SDS011;3556;53.500;10.176;2023-06-10T01:37:04;11.03;;;3.63;;
7029;SDS011;3556;53.500;10.176;2023-06-10T01:39:30;9.70;;;4.07;;
7029;SDS011;3556;53.500;10.176;2023-06-10T01:41:57;10.23;;;3.97;;
7029;SDS011;3556;53.500;10.176;2023-06-10T01:44:23;8.93;;;3.83;;
7029;SDS011;3556;53.500;10.176;2023-06-10T01:46:49;4.30;;;3.33;;
7029;SDS011;3556;53.500;10.176;2023-06-10T01:49:15;9.20;;;3.93;;
7029;SDS011;3556;53.500;10.176;2023-06-10T01:51:41;9.23;;;3.90;;
7029;SDS011;3556;53.500;10.176;2023-06-10T01:54:06;4.70;;;3.27;;
7029;SDS011;3556;53.500;10.176;2023-06-10T01:56:32;5.20;;;3.30;;
7029;SDS011;3556;53.500;10.176;2023-06-10T01:58:58;4.30;;;3.40;;
7029;SDS011;3556;53.500;10.176;2023-06-10T02:01:25;5.53;;;4.00;;
7029;SDS011;3556;53.500;10.176;2023-06-10T02:03:51;7.23;;;3.40;;
7029;SDS011;3556;53.500;10.176;2023-06-10T02:06:16;6.07;;;4.30;;
7029;SDS011;3556;53.500;10.176;2023-06-10T02:08:42;6.30;;;4.00;;
7029;SDS011;3556;53.500;10.176;2023-06-10T02:11:07;5.37;;;3.40;;
7029;SDS011;3556;53.500;10.176;2023-06-10T02:13:33;6.23;;;3.27;;
7029;SDS011;3556;53.500;10.176;2023-06-10T02:15:59;4.80;;;3.33;;
7029;SDS011;3556;53.500;10.176;2023-06-10T02:18:26;6.93;;;3.80;;
7029;SDS011;3556;53.500;10.176;2023-06-10T02:20:53;6.30;;;3.50;;
7029;SDS011;3556;53.500;10.176;2023-06-10T02:23:19;6.27;;;3.30;;
7029;SDS011;3556;53.500;10.176;2023-06-10T02:25:44;11.30;;;3.60;;
7029;SDS011;3556;53.500;10.176;2023-06-10T02:28:12;6.40;;;3.67;;
7029;SDS011;3556;53.500;10.176;2023-06-10T02:30:39;6.70;;;3.37;;
7029;SDS011;3556;53.500;10.176;2023-06-10T02:33:06;8.37;;;3.70;;
7029;SDS011;3556;53.500;10.176;2023-06-10T02:35:35;6.40;;;3.07;;
7029;SDS011;3556;53.500;10.176;2023-06-10T02:38:01;12.60;;;3.70;;
7029;SDS011;3556;53.500;10.176;2023-06-10T02:40:27;7.47;;;3.50;;
7029;SDS011;3556;53.500;10.176;2023-06-10T02:42:53;5.90;;;3.50;;
7029;SDS011;3556;53.500;10.176;2023-06-10T02:45:19;8.57;;;3.50;;
7029;SDS011;3556;53.500;10.176;2023-06-10T02:47:45;3.87;;;2.80;;
7029;SDS011;3556;53.500;10.176;2023-06-10T02:50:11;8.10;;;3.23;;
7029;SDS011;3556;53.500;10.176;2023-06-10T02:52:36;6.93;;;3.57;;
7029;SDS011;3556;53.500;10.176;2023-06-10T02:55:02;9.83;;;3.50;;
7029;SDS011;3556;53.500;10.176;2023-06-10T02:57:28;6.13;;;3.37;;
7029;SDS011;3556;53.500;10.176;2023-06-10T02:59:54;4.97;;;3.23;;
7029;SDS011;3556;53.500;10.176;2023-06-10T03:02:19;6.00;;;3.17;;
7029;SDS011;3556;53.500;10.176;2023-06-10T03:04:45;8.13;;;4.00;;
7029;SDS011;3556;53.500;10.176;2023-06-10T03:07:11;4.83;;;3.30;;
7029;SDS011;3556;53.500;10.176;2023-06-10T03:09:37;6.27;;;3.23;;
7029;SDS011;3556;53.500;10.176;2023-06-10T03:12:03;10.20;;;3.13;;
7029;SDS011;3556;53.500;10.176;2023-06-10T03:14:29;7.53;;;3.23;;
7029;SDS011;3556;53.500;10.176;2023-06-10T03:16:55;5.63;;;3.00;;
7029;SDS011;3556;53.500;10.176;2023-06-10T03:19:21;9.03;;;3.13;;
7029;SDS011;3556;53.500;10.176;2023-06-10T03:21:49;12.63;;;3.97;;
7029;SDS011;3556;53.500;10.176;2023-06-10T03:24:19;12.23;;;3.23;;
7029;SDS011;3556;53.500;10.176;2023-06-10T03:26:45;7.40;;;3.10;;
7029;SDS011;3556;53.500;10.176;2023-06-10T03:29:11;7.40;;;3.40;;
7029;SDS011;3556;53.500;10.176;2023-06-10T03:31:36;5.53;;;3.00;;
7029;SDS011;3556;53.500;10.176;2023-06-10T03:34:03;6.90;;;2.60;;
7029;SDS011;3556;53.500;10.176;2023-06-10T03:36:29;4.87;;;2.80;;
7029;SDS011;3556;53.500;10.176;2023-06-10T03:38:55;5.20;;;3.00;;
7029;SDS011;3556;53.500;10.176;2023-06-10T03:41:22;3.27;;;2.73;;
7029;SDS011;3556;53.500;10.176;2023-06-10T03:43:47;5.60;;;2.80;;
7029;SDS011;3556;53.500;10.176;2023-06-10T03:46:13;5.33;;;2.47;;
7029;SDS011;3556;53.500;10.176;2023-06-10T03:48:39;4.03;;;2.57;;
7029;SDS011;3556;53.500;10.176;2023-06-10T03:51:05;6.03;;;2.57;;
7029;SDS011;3556;53.500;10.176;2023-06-10T03:53:31;9.50;;;2.67;;
7029;SDS011;3556;53.500;10.176;2023-06-10T03:55:57;6.90;;;2.57;;
7029;SDS011;3556;53.500;10.176;2023-06-10T03:58:22;6.40;;;2.50;;
7029;SDS011;3556;53.500;10.176;2023-06-10T04:00:48;8.23;;;3.13;;
7029;SDS011;3556;53.500;10.176;2023-06-10T04:03:14;6.30;;;2.87;;
7029;SDS011;3556;53.500;10.176;2023-06-10T04:05:40;6.30;;;2.70;;
7029;SDS011;3556;53.500;10.176;2023-06-10T04:08:06;5.53;;;2.87;;
7029;SDS011;3556;53.500;10.176;2023-06-10T04:10:32;5.93;;;2.40;;
7029;SDS011;3556;53.500;10.176;2023-06-10T04:12:58;8.67;;;2.37;;
7029;SDS011;3556;53.500;10.176;2023-06-10T04:15:24;14.67;;;2.90;;
7029;SDS011;3556;53.500;10.176;2023-06-10T04:17:50;8.53;;;2.93;;
7029;SDS011;3556;53.500;10.176;2023-06-10T04:20:16;7.70;;;3.00;;
7029;SDS011;3556;53.500;10.176;2023-06-10T04:22:41;9.40;;;2.57;;
7029;SDS011;3556;53.500;10.176;2023-06-10T04:25:08;10.30;;;2.40;;
7029;SDS011;3556;53.500;10.176;2023-06-10T04:27:34;10.10;;;2.57;;
7029;SDS011;3556;53.500;10.176;2023-06-10T04:30:00;11.37;;;3.13;;
7029;SDS011;3556;53.500;10.176;2023-06-10T04:32:26;4.00;;;2.47;;
7029;SDS011;3556;53.500;10.176;2023-06-10T04:34:51;8.63;;;2.70;;
7029;SDS011;3556;53.500;10.176;2023-06-10T04:37:17;7.53;;;2.53;;
7029;SDS011;3556;53.500;10.176;2023-06-10T04:39:43;5.80;;;2.70;;
7029;SDS011;3556;53.500;10.176;2023-06-10T04:42:08;5.97;;;2.50;;
7029;SDS011;3556;53.500;10.176;2023-06-10T04:44:34;5.33;;;2.70;;
7029;SDS011;3556;53.500;10.176;2023-06-10T04:47:00;9.07;;;2.47;;
7029;SDS011;3556;53.500;10.176;2023-06-10T04:49:26;10.30;;;2.83;;
7029;SDS011;3556;53.500;10.176;2023-06-10T04:51:51;8.10;;;2.50;;
7029;SDS011;3556;53.500;10.176;2023-06-10T04:54:17;15.83;;;2.50;;
7029;SDS011;3556;53.500;10.176;2023-06-10T04:56:42;8.30;;;2.50;;
7029;SDS011;3556;53.500;10.176;2023-06-10T04:59:08;6.93;;;1.93;;
7029;SDS011;3556;53.500;10.176;2023-06-10T05:01:34;6.57;;;2.20;;
7029;SDS011;3556;53.500;10.176;2023-06-10T05:03:59;8.27;;;2.90;;
7029;SDS011;3556;53.500;10.176;2023-06-10T05:06:25;8.80;;;3.30;;
7029;SDS011;3556;53.500;10.176;2023-06-10T05:08:50;10.77;;;2.30;;
7029;SDS011;3556;53.500;10.176;2023-06-10T05:11:16;5.83;;;2.50;;
7029;SDS011;3556;53.500;10.176;2023-06-10T05:13:42;8.17;;;2.33;;
7029;SDS011;3556;53.500;10.176;2023-06-10T05:16:09;12.10;;;2.63;;
7029;SDS011;3556;53.500;10.176;2023-06-10T05:18:34;12.70;;;2.83;;
7029;SDS011;3556;53.500;10.176;2023-06-10T05:21:00;8.07;;;2.20;;
7029;SDS011;3556;53.500;10.176;2023-06-10T05:23:27;5.97;;;1.97;;
7029;SDS011;3556;53.500;10.176;2023-06-10T05:25:53;10.40;;;2.00;;
7029;SDS011;3556;53.500;10.176;2023-06-10T05:28:19;2.27;;;1.73;;
7029;SDS011;3556;53.500;10.176;2023-06-10T05:30:45;12.13;;;2.47;;
7029;SDS011;3556;53.500;10.176;2023-06-10T05:33:11;9.53;;;2.63;;
7029;SDS011;3556;53.500;10.176;2023-06-10T05:35:36;11.13;;;2.10;;
7029;SDS011;3556;53.500;10.176;2023-06-10T05:38:02;7.40;;;2.27;;
7029;SDS011;3556;53.500;10.176;2023-06-10T05:40:28;9.73;;;2.07;;
7029;SDS011;3556;53.500;10.176;2023-06-10T05:42:53;7.47;;;2.47;;
7029;SDS011;3556;53.500;10.176;2023-06-10T05:45:20;8.50;;;2.27;;
7029;SDS011;3556;53.500;10.176;2023-06-10T05:47:45;4.37;;;2.07;;
7029;SDS011;3556;53.500;10.176;2023-06-10T05:50:11;6.40;;;1.90;;
7029;SDS011;3556;53.500;10.176;2023-06-10T05:52:36;9.40;;;2.33;;
7029;SDS011;3556;53.500;10.176;2023-06-10T05:55:05;6.50;;;1.97;;
7029;SDS011;3556;53.500;10.176;2023-06-10T05:57:31;7.80;;;2.17;;
7029;SDS011;3556;53.500;10.176;2023-06-10T05:59:56;5.57;;;2.50;;
7029;SDS011;3556;53.500;10.176;2023-06-10T06:02:22;8.97;;;2.30;;
7029;SDS011;3556;53.500;10.176;2023-06-10T06:04:48;7.77;;;2.10;;
7029;SDS011;3556;53.500;10.176;2023-06-10T06:07:14;4.97;;;2.17;;
7029;SDS011;3556;53.500;10.176;2023-06-10T06:09:39;4.73;;;2.27;;
7029;SDS011;3556;53.500;10.176;2023-06-10T06:12:05;3.97;;;2.27;;
7029;SDS011;3556;53.500;10.176;2023-06-10T06:14:32;7.07;;;1.90;;
7029;SDS011;3556;53.500;10.176;2023-06-10T06:17:01;7.70;;;2.33;;
7029;SDS011;3556;53.500;10.176;2023-06-10T06:19:27;8.70;;;2.40;;
7029;SDS011;3556;53.500;10.176;2023-06-10T06:21:52;5.03;;;2.00;;
7029;SDS011;3556;53.500;10.176;2023-06-10T06:24:18;5.63;;;2.30;;
7029;SDS011;3556;53.500;10.176;2023-06-10T06:26:44;5.53;;;2.37;;
7029;SDS011;3556;53.500;10.176;2023-06-10T06:29:10;7.57;;;2.33;;
7029;SDS011;3556;53.500;10.176;2023-06-10T06:31:35;7.33;;;2.10;;
7029;SDS011;3556;53.500;10.176;2023-06-10T06:34:01;11.20;;;2.37;;
7029;SDS011;3556;53.500;10.176;2023-06-10T06:36:27;11.37;;;2.30;;
7029;SDS011;3556;53.500;10.176;2023-06-10T06:38:52;6.70;;;2.27;;
7029;SDS011;3556;53.500;10.176;2023-06-10T06:41:18;8.07;;;2.57;;
7029;SDS011;3556;53.500;10.176;2023-06-10T06:43:44;8.07;;;2.50;;
7029;SDS011;3556;53.500;10.176;2023-06-10T06:46:10;3.70;;;2.00;;
7029;SDS011;3556;53.500;10.176;2023-06-10T06:48:35;5.03;;;2.33;;
7029;SDS011;3556;53.500;10.176;2023-06-10T06:51:01;5.10;;;2.40;;
7029;SDS011;3556;53.500;10.176;2023-06-10T06:53:26;9.00;;;2.60;;
7029;SDS011;3556;53.500;10.176;2023-06-10T06:55:52;3.57;;;1.97;;
7029;SDS011;3556;53.500;10.176;2023-06-10T06:58:18;5.87;;;2.10;;
7029;SDS011;3556;53.500;10.176;2023-06-10T07:00:43;6.73;;;2.43;;
7029;SDS011;3556;53.500;10.176;2023-06-10T07:03:09;5.80;;;2.13;;
7029;SDS011;3556;53.500;10.176;2023-06-10T07:05:35;6.13;;;2.43;;
7029;SDS011;3556;53.500;10.176;2023-06-10T07:08:01;6.33;;;2.13;;
7029;SDS011;3556;53.500;10.176;2023-06-10T07:10:32;3.47;;;2.17;;
7029;SDS011;3556;53.500;10.176;2023-06-10T07:12:58;6.43;;;2.93;;
7029;SDS011;3556;53.500;10.176;2023-06-10T07:15:23;6.53;;;2.60;;
7029;SDS011;3556;53.500;10.176;2023-06-10T07:17:49;4.47;;;2.30;;
7029;SDS011;3556;53.500;10.176;2023-06-10T07:20:15;8.90;;;2.40;;
7029;SDS011;3556;53.500;10.176;2023-06-10T07:22:41;3.57;;;2.13;;
7029;SDS011;3556;53.500;10.176;2023-06-10T07:25:07;10.83;;;2.30;;
7029;SDS011;3556;53.500;10.176;2023-06-10T07:27:33;6.87;;;2.60;;
7029;SDS011;3556;53.500;10.176;2023-06-10T07:30:01;7.10;;;2.67;;
7029;SDS011;3556;53.500;10.176;2023-06-10T07:32:27;8.53;;;2.50;;
7029;SDS011;3556;53.500;10.176;2023-06-10T07:34:52;6.60;;;2.53;;
7029;SDS011;3556;53.500;10.176;2023-06-10T07:37:18;9.47;;;2.73;;
7029;SDS011;3556;53.500;10.176;2023-06-10T07:39:44;6.00;;;3.00;;
7029;SDS011;3556;53.500;10.176;2023-06-10T07:42:10;9.73;;;3.00;;
7029;SDS011;3556;53.500;10.176;2023-06-10T07:44:36;3.07;;;2.33;;
7029;SDS011;3556;53.500;10.176;2023-06-10T07:47:01;5.43;;;2.70;;
7029;SDS011;3556;53.500;10.176;2023-06-10T07:49:27;6.57;;;3.07;;
7029;SDS011;3556;53.500;10.176;2023-06-10T07:51:54;5.40;;;2.53;;
7029;SDS011;3556;53.500;10.176;2023-06-10T07:54:20;5.73;;;2.27;;
7029;SDS011;3556;53.500;10.176;2023-06-10T07:56:46;5.67;;;2.50;;
7029;SDS011;3556;53.500;10.176;2023-06-10T07:59:13;10.30;;;2.93;;
7029;SDS011;3556;53.500;10.176;2023-06-10T08:01:39;6.43;;;2.70;;
7029;SDS011;3556;53.500;10.176;2023-06-10T08:04:05;5.80;;;2.80;;
7029;SDS011;3556;53.500;10.176;2023-06-10T08:06:31;8.37;;;3.10;;
7029;SDS011;3556;53.500;10.176;2023-06-10T08:08:57;16.10;;;3.00;;
7029;SDS011;3556;53.500;10.176;2023-06-10T08:11:22;7.30;;;2.97;;
7029;SDS011;3556;53.500;10.176;2023-06-10T08:13:48;17.13;;;3.40;;
7029;SDS011;3556;53.500;10.176;2023-06-10T08:16:14;5.43;;;2.60;;
7029;SDS011;3556;53.500;10.176;2023-06-10T08:18:39;9.67;;;2.90;;
7029;SDS011;3556;53.500;10.176;2023-06-10T08:21:05;7.20;;;2.67;;
7029;SDS011;3556;53.500;10.176;2023-06-10T08:23:31;8.13;;;2.93;;
7029;SDS011;3556;53.500;10.176;2023-06-10T08:25:56;8.97;;;3.30;;
7029;SDS011;3556;53.500;10.176;2023-06-10T08:28:23;6.03;;;2.93;;
7029;SDS011;3556;53.500;10.176;2023-06-10T08:30:48;6.97;;;3.23;;
7029;SDS011;3556;53.500;10.176;2023-06-10T08:33:14;6.80;;;2.80;;
7029;SDS011;3556;53.500;10.176;2023-06-10T08:35:40;10.83;;;3.20;;
7029;SDS011;3556;53.500;10.176;2023-06-10T08:38:05;3.93;;;2.60;;
7029;SDS011;3556;53.500;10.176;2023-06-10T08:40:32;3.70;;;2.50;;
7029;SDS011;3556;53.500;10.176;2023-06-10T08:45:35;5.90;;;2.60;;
7029;SDS011;3556;53.500;10.176;2023-06-10T08:48:05;4.47;;;2.80;;
7029;SDS011;3556;53.500;10.176;2023-06-10T08:50:33;8.17;;;3.33;;
7029;SDS011;3556;53.500;10.176;2023-06-10T08:53:01;7.23;;;3.43;;
7029;SDS011;3556;53.500;10.176;2023-06-10T08:55:30;10.63;;;3.47;;
7029;SDS011;3556;53.500;10.176;2023-06-10T08:58:01;6.30;;;3.17;;
7029;SDS011;3556;53.500;10.176;2023-06-10T09:00:27;7.57;;;3.40;;
7029;SDS011;3556;53.500;10.176;2023-06-10T09:02:55;6.60;;;3.20;;
7029;SDS011;3556;53.500;10.176;2023-06-10T09:05:21;7.10;;;3.40;;
7029;SDS011;3556;53.500;10.176;2023-06-10T09:07:48;7.20;;;3.17;;
7029;SDS011;3556;53.500;10.176;2023-06-10T09:10:14;6.83;;;3.30;;
7029;SDS011;3556;53.500;10.176;2023-06-10T09:12:40;6.17;;;3.20;;
7029;SDS011;3556;53.500;10.176;2023-06-10T09:15:06;9.00;;;3.83;;
7029;SDS011;3556;53.500;10.176;2023-06-10T09:17:33;7.60;;;3.73;;
7029;SDS011;3556;53.500;10.176;2023-06-10T09:20:01;6.60;;;3.33;;
7029;SDS011;3556;53.500;10.176;2023-06-10T09:22:27;5.40;;;3.30;;
7029;SDS011;3556;53.500;10.176;2023-06-10T09:25:06;13.73;;;3.70;;
7029;SDS011;3556;53.500;10.176;2023-06-10T09:27:45;7.43;;;3.43;;
7029;SDS011;3556;53.500;10.176;2023-06-10T09:30:31;3.53;;;3.20;;
7029;SDS011;3556;53.500;10.176;2023-06-10T09:33:00;13.73;;;3.77;;
7029;SDS011;3556;53.500;10.176;2023-06-10T09:35:29;9.57;;;3.73;;
7029;SDS011;3556;53.500;10.176;2023-06-10T09:37:56;9.53;;;3.80;;
7029;SDS011;3556;53.500;10.176;2023-06-10T09:40:23;4.80;;;3.43;;
7029;SDS011;3556;53.500;10.176;2023-06-10T09:42:59;7.83;;;3.63;;
7029;SDS011;3556;53.500;10.176;2023-06-10T09:45:31;11.33;;;4.10;;
7029;SDS011;3556;53.500;10.176;2023-06-10T09:47:57;7.53;;;4.10;;
7029;SDS011;3556;53.500;10.176;2023-06-10T09:50:23;8.70;;;3.47;;
7029;SDS011;3556;53.500;10.176;2023-06-10T09:52:49;14.00;;;4.03;;
7029;SDS011;3556;53.500;10.176;2023-06-10T09:55:16;8.80;;;3.83;;
7029;SDS011;3556;53.500;10.176;2023-06-10T09:57:42;6.03;;;3.70;;
7029;SDS011;3556;53.500;10.176;2023-06-10T10:00:12;5.30;;;3.57;;
7029;SDS011;3556;53.500;10.176;2023-06-10T10:02:45;5.63;;;3.83;;
7029;SDS011;3556;53.500;10.176;2023-06-10T10:05:16;6.07;;;3.70;;
7029;SDS011;3556;53.500;10.176;2023-06-10T10:07:43;12.40;;;4.00;;
7029;SDS011;3556;53.500;10.176;2023-06-10T10:10:10;5.20;;;3.70;;
7029;SDS011;3556;53.500;10.176;2023-06-10T10:12:37;9.73;;;4.10;;
7029;SDS011;3556;53.500;10.176;2023-06-10T10:15:05;7.93;;;4.40;;
7029;SDS011;3556;53.500;10.176;2023-06-10T10:17:33;8.20;;;4.13;;
7029;SDS011;3556;53.500;10.176;2023-06-10T10:20:02;7.70;;;3.87;;
7029;SDS011;3556;53.500;10.176;2023-06-10T10:22:34;4.23;;;3.50;;
7029;SDS011;3556;53.500;10.176;2023-06-10T10:25:05;5.00;;;3.57;;
7029;SDS011;3556;53.500;10.176;2023-06-10T10:27:36;11.13;;;4.80;;
7029;SDS011;3556;53.500;10.176;2023-06-10T10:30:06;9.10;;;4.03;;
7029;SDS011;3556;53.500;10.176;2023-06-10T10:32:38;8.67;;;4.33;;
7029;SDS011;3556;53.500;10.176;2023-06-10T10:35:08;12.30;;;4.53;;
7029;SDS011;3556;53.500;10.176;2023-06-10T10:37:37;8.40;;;3.90;;
7029;SDS011;3556;53.500;10.176;2023-06-10T10:40:04;5.53;;;4.17;;
7029;SDS011;3556;53.500;10.176;2023-06-10T10:42:32;8.43;;;4.27;;
7029;SDS011;3556;53.500;10.176;2023-06-10T10:44:59;7.27;;;4.57;;
7029;SDS011;3556;53.500;10.176;2023-06-10T10:47:27;9.73;;;4.53;;
7029;SDS011;3556;53.500;10.176;2023-06-10T10:49:55;12.33;;;3.83;;
7029;SDS011;3556;53.500;10.176;2023-06-10T10:52:25;7.23;;;4.17;;
7029;SDS011;3556;53.500;10.176;2023-06-10T10:54:53;7.70;;;4.80;;
7029;SDS011;3556;53.500;10.176;2023-06-10T10:57:23;11.90;;;4.63;;
7029;SDS011;3556;53.500;10.176;2023-06-10T11:02:31;14.30;;;4.57;;
7029;SDS011;3556;53.500;10.176;2023-06-10T11:05:04;6.17;;;4.63;;
7029;SDS011;3556;53.500;10.176;2023-06-10T11:07:31;13.97;;;4.60;;
7029;SDS011;3556;53.500;10.176;2023-06-10T11:12:23;7.57;;;4.70;;
7029;SDS011;3556;53.500;10.176;2023-06-10T11:14:55;4.40;;;4.00;;
7029;SDS011;3556;53.500;10.176;2023-06-10T11:17:21;9.47;;;4.80;;
7029;SDS011;3556;53.500;10.176;2023-06-10T11:19:47;9.60;;;5.43;;
7029;SDS011;3556;53.500;10.176;2023-06-10T11:22:16;6.70;;;4.57;;
7029;SDS011;3556;53.500;10.176;2023-06-10T11:24:47;7.27;;;5.20;;
7029;SDS011;3556;53.500;10.176;2023-06-10T11:32:32;7.07;;;5.20;;
7029;SDS011;3556;53.500;10.176;2023-06-10T11:34:59;8.23;;;5.23;;
7029;SDS011;3556;53.500;10.176;2023-06-10T11:37:28;5.00;;;4.60;;
7029;SDS011;3556;53.500;10.176;2023-06-10T11:39:54;4.90;;;4.40;;
7029;SDS011;3556;53.500;10.176;2023-06-10T11:42:23;5.47;;;4.90;;
7029;SDS011;3556;53.500;10.176;2023-06-10T11:44:50;4.93;;;4.50;;
7029;SDS011;3556;53.500;10.176;2023-06-10T11:47:16;7.83;;;4.87;;
7029;SDS011;3556;53.500;10.176;2023-06-10T11:49:46;5.47;;;4.40;;
7029;SDS011;3556;53.500;10.176;2023-06-10T11:52:25;6.27;;;4.50;;
7029;SDS011;3556;53.500;10.176;2023-06-10T11:54:53;11.00;;;5.23;;
7029;SDS011;3556;53.500;10.176;2023-06-10T11:57:20;7.10;;;4.60;;
7029;SDS011;3556;53.500;10.176;2023-06-10T11:59:46;7.30;;;4.80;;
7029;SDS011;3556;53.500;10.176;2023-06-10T12:02:15;11.50;;;4.73;;
7029;SDS011;3556;53.500;10.176;2023-06-10T12:04:41;5.23;;;4.70;;
7029;SDS011;3556;53.500;10.176;2023-06-10T12:07:07;8.80;;;4.60;;
7029;SDS011;3556;53.500;10.176;2023-06-10T12:09:32;6.30;;;4.90;;
7029;SDS011;3556;53.500;10.176;2023-06-10T12:12:02;6.93;;;5.20;;
7029;SDS011;3556;53.500;10.176;2023-06-10T12:17:37;6.80;;;4.97;;
7029;SDS011;3556;53.500;10.176;2023-06-10T12:20:04;9.47;;;5.23;;
7029;SDS011;3556;53.500;10.176;2023-06-10T12:22:48;8.50;;;5.30;;
7029;SDS011;3556;53.500;10.176;2023-06-10T12:25:14;7.20;;;5.03;;
7029;SDS011;3556;53.500;10.176;2023-06-10T12:27:40;8.20;;;5.13;;
7029;SDS011;3556;53.500;10.176;2023-06-10T12:30:18;5.57;;;4.93;;
7029;SDS011;3556;53.500;10.176;2023-06-10T12:32:45;5.70;;;5.13;;
7029;SDS011;3556;53.500;10.176;2023-06-10T12:35:12;10.90;;;5.17;;
7029;SDS011;3556;53.500;10.176;2023-06-10T12:37:39;5.57;;;4.97;;
7029;SDS011;3556;53.500;10.176;2023-06-10T12:40:07;10.27;;;5.50;;
7029;SDS011;3556;53.500;10.176;2023-06-10T12:42:36;7.27;;;5.87;;
7029;SDS011;3556;53.500;10.176;2023-06-10T12:45:02;10.57;;;5.90;;
7029;SDS011;3556;53.500;10.176;2023-06-10T12:47:36;9.20;;;5.47;;
7029;SDS011;3556;53.500;10.176;2023-06-10T12:50:04;7.27;;;5.50;;
7029;SDS011;3556;53.500;10.176;2023-06-10T12:52:30;6.47;;;4.90;;
7029;SDS011;3556;53.500;10.176;2023-06-10T12:54:57;5.77;;;5.30;;
7029;SDS011;3556;53.500;10.176;2023-06-10T12:57:23;6.60;;;5.20;;
7029;SDS011;3556;53.500;10.176;2023-06-10T12:59:49;6.70;;;4.60;;
7029;SDS011;3556;53.500;10.176;2023-06-10T13:02:17;7.47;;;4.80;;
7029;SDS011;3556;53.500;10.176;2023-06-10T13:04:44;5.80;;;4.50;;
7029;SDS011;3556;53.500;10.176;2023-06-10T13:07:11;6.53;;;4.70;;
7029;SDS011;3556;53.500;10.176;2023-06-10T13:09:37;6.80;;;4.90;;
7029;SDS011;3556;53.500;10.176;2023-06-10T13:12:02;5.47;;;4.90;;
7029;SDS011;3556;53.500;10.176;2023-06-10T13:14:28;12.67;;;5.30;;
7029;SDS011;3556;53.500;10.176;2023-06-10T13:16:54;7.47;;;4.80;;
7029;SDS011;3556;53.500;10.176;2023-06-10T13:19:20;10.53;;;5.83;;
7029;SDS011;3556;53.500;10.176;2023-06-10T13:21:49;7.33;;;5.07;;
7029;SDS011;3556;53.500;10.176;2023-06-10T13:24:16;7.47;;;4.97;;
7029;SDS011;3556;53.500;10.176;2023-06-10T13:26:42;7.97;;;4.83;;
7029;SDS011;3556;53.500;10.176;2023-06-10T13:29:08;5.77;;;4.73;;
7029;SDS011;3556;53.500;10.176;2023-06-10T13:31:38;9.10;;;4.97;;
7029;SDS011;3556;53.500;10.176;2023-06-10T13:34:05;6.13;;;4.87;;
7029;SDS011;3556;53.500;10.176;2023-06-10T13:36:31;7.07;;;5.20;;
7029;SDS011;3556;53.500;10.176;2023-06-10T13:38:57;5.30;;;4.80;;
7029;SDS011;3556;53.500;10.176;2023-06-10T13:41:22;8.50;;;4.73;;
7029;SDS011;3556;53.500;10.176;2023-06-10T13:43:48;10.87;;;5.47;;
7029;SDS011;3556;53.500;10.176;2023-06-10T13:46:14;6.00;;;4.90;;
7029;SDS011;3556;53.500;10.176;2023-06-10T13:48:39;5.53;;;5.03;;
7029;SDS011;3556;53.500;10.176;2023-06-10T13:51:05;8.40;;;4.97;;
7029;SDS011;3556;53.500;10.176;2023-06-10T13:53:31;10.97;;;4.87;;
7029;SDS011;3556;53.500;10.176;2023-06-10T13:55:57;8.10;;;4.57;;
7029;SDS011;3556;53.500;10.176;2023-06-10T13:58:23;9.43;;;4.30;;
7029;SDS011;3556;53.500;10.176;2023-06-10T14:00:48;7.10;;;4.30;;
7029;SDS011;3556;53.500;10.176;2023-06-10T14:03:14;14.27;;;3.83;;
7029;SDS011;3556;53.500;10.176;2023-06-10T14:05:40;6.63;;;3.80;;
7029;SDS011;3556;53.500;10.176;2023-06-10T14:08:06;7.20;;;4.00;;
7029;SDS011;3556;53.500;10.176;2023-06-10T14:10:32;11.93;;;3.50;;
7029;SDS011;3556;53.500;10.176;2023-06-10T14:12:58;4.03;;;3.40;;
7029;SDS011;3556;53.500;10.176;2023-06-10T14:15:25;6.03;;;3.73;;
7029;SDS011;3556;53.500;10.176;2023-06-10T14:17:50;10.33;;;3.87;;
7029;SDS011;3556;53.500;10.176;2023-06-10T14:20:16;8.00;;;3.70;;
7029;SDS011;3556;53.500;10.176;2023-06-10T14:22:42;10.70;;;3.57;;
7029;SDS011;3556;53.500;10.176;2023-06-10T14:25:07;3.87;;;3.20;;
7029;SDS011;3556;53.500;10.176;2023-06-10T14:27:33;4.50;;;3.70;;
7029;SDS011;3556;53.500;10.176;2023-06-10T14:29:59;5.97;;;3.40;;
7029;SDS011;3556;53.500;10.176;2023-06-10T14:32:24;13.67;;;3.40;;
7029;SDS011;3556;53.500;10.176;2023-06-10T14:34:50;5.40;;;3.67;;
7029;SDS011;3556;53.500;10.176;2023-06-10T14:37:16;6.30;;;3.67;;
7029;SDS011;3556;53.500;10.176;2023-06-10T14:39:41;6.63;;;3.53;;
7029;SDS011;3556;53.500;10.176;2023-06-10T14:42:07;9.10;;;3.83;;
7029;SDS011;3556;53.500;10.176;2023-06-10T14:44:33;7.20;;;3.00;;
7029;SDS011;3556;53.500;10.176;2023-06-10T14:46:59;6.80;;;3.40;;
7029;SDS011;3556;53.500;10.176;2023-06-10T14:49:24;6.90;;;3.50;;
7029;SDS011;3556;53.500;10.176;2023-06-10T14:51:50;10.00;;;4.03;;
7029;SDS011;3556;53.500;10.176;2023-06-10T14:54:16;9.60;;;3.63;;
7029;SDS011;3556;53.500;10.176;2023-06-10T14:56:42;6.77;;;3.73;;
7029;SDS011;3556;53.500;10.176;2023-06-10T14:59:07;11.13;;;3.67;;
7029;SDS011;3556;53.500;10.176;2023-06-10T15:01:33;6.47;;;3.40;;
7029;SDS011;3556;53.500;10.176;2023-06-10T15:03:59;11.30;;;3.37;;
7029;SDS011;3556;53.500;10.176;2023-06-10T15:06:24;9.87;;;3.60;;
7029;SDS011;3556;53.500;10.176;2023-06-10T15:08:50;9.63;;;3.70;;
7029;SDS011;3556;53.500;10.176;2023-06-10T15:11:15;5.10;;;3.10;;
7029;SDS011;3556;53.500;10.176;2023-06-10T15:13:41;15.33;;;3.20;;